createdAt,value
2023-05-18T00:00:03.006Z,81.82
2023-05-18T00:01:03.011Z,81.92
2023-05-18T00:02:02.993Z,81.92
2023-05-18T00:03:03.045Z,82.23
2023-05-18T00:04:03.051Z,81.71
2023-05-18T00:05:02.995Z,81.20
2023-05-18T00:06:02.990Z,81.10
2023-05-18T00:07:02.978Z,81.51
2023-05-18T00:08:03.057Z,81.92
2023-05-18T00:09:02.967Z,82.43
2023-05-18T00:10:03.174Z,83.26
2023-05-18T00:11:02.996Z,83.15
2023-05-18T00:12:02.964Z,82.54
2023-05-18T00:13:02.954Z,83.05
2023-05-18T00:14:02.956Z,83.05
2023-05-18T00:15:02.954Z,82.54
2023-05-18T00:16:02.987Z,82.54
2023-05-18T00:17:02.942Z,82.75
2023-05-18T00:18:02.991Z,81.62
2023-05-18T00:19:03.002Z,81.30
2023-05-18T00:20:02.939Z,81.10
2023-05-18T00:21:02.919Z,81.62
2023-05-18T00:22:02.923Z,82.13
2023-05-18T00:23:02.935Z,82.03
2023-05-18T00:24:02.915Z,81.92
2023-05-18T00:25:02.937Z,81.20
2023-05-18T00:26:02.909Z,81.20
2023-05-18T00:27:02.926Z,81.86
2023-05-18T00:28:02.898Z,82.33
2023-05-18T00:29:02.893Z,82.17
2023-05-18T00:30:02.894Z,82.06
2023-05-18T00:31:02.886Z,82.03
2023-05-18T00:32:02.943Z,81.55
2023-05-18T00:33:02.984Z,81.65
2023-05-18T00:34:02.880Z,81.65
2023-05-18T00:35:02.892Z,81.34
2023-05-18T00:36:02.882Z,81.55
2023-05-18T00:37:02.869Z,81.86
2023-05-18T00:38:02.867Z,82.10
2023-05-18T00:39:02.872Z,82.10
2023-05-18T00:40:02.872Z,82.00
2023-05-18T00:41:02.861Z,81.90
2023-05-18T00:42:02.853Z,82.51
2023-05-18T00:43:02.936Z,83.03
2023-05-18T00:44:02.849Z,82.71
2023-05-18T00:45:02.841Z,81.69
2023-05-18T00:46:02.888Z,82.10
2023-05-18T00:47:02.834Z,81.79
2023-05-18T00:48:02.877Z,82.00
2023-05-18T00:49:02.831Z,82.62
2023-05-18T00:50:02.821Z,82.71
2023-05-18T00:51:02.822Z,81.69
2023-05-18T00:52:02.819Z,81.90
2023-05-18T00:53:02.815Z,82.71
2023-05-18T00:54:02.812Z,82.45
2023-05-18T00:55:02.809Z,82.34
2023-05-18T00:56:02.804Z,81.93
2023-05-18T00:57:02.796Z,83.06
2023-05-18T00:58:02.798Z,83.48
2023-05-18T00:59:02.805Z,83.78
2023-05-18T01:00:02.790Z,82.65
2023-05-18T01:01:02.857Z,82.86
2023-05-18T01:02:02.826Z,83.17
2023-05-18T01:03:02.910Z,83.89
2023-05-18T01:04:02.773Z,83.27
2023-05-18T01:05:02.765Z,83.13
2023-05-18T01:06:02.770Z,82.76
2023-05-18T01:07:02.758Z,82.96
2023-05-18T01:08:02.757Z,82.96
2023-05-18T01:09:02.770Z,83.17
2023-05-18T01:10:02.752Z,82.82
2023-05-18T01:11:02.767Z,83.03
2023-05-18T01:12:02.751Z,82.71
2023-05-18T01:13:02.739Z,82.82
2023-05-18T01:14:02.733Z,83.06
2023-05-18T01:15:02.997Z,82.82
2023-05-18T01:16:02.722Z,82.71
2023-05-18T01:17:02.781Z,82.45
2023-05-18T01:18:02.777Z,83.03
2023-05-18T01:19:02.726Z,83.13
2023-05-18T01:20:02.757Z,82.82
2023-05-18T01:21:02.700Z,82.71
2023-05-18T01:22:02.700Z,82.92
2023-05-18T01:23:02.710Z,83.27
2023-05-18T01:24:02.698Z,82.92
2023-05-18T01:25:02.692Z,82.86
2023-05-18T01:26:02.688Z,83.68
2023-05-18T01:27:02.688Z,83.75
2023-05-18T01:28:02.682Z,83.99
2023-05-18T01:29:02.700Z,83.03
2023-05-18T01:30:02.672Z,82.86
2023-05-18T01:31:02.699Z,82.76
2023-05-18T01:32:02.661Z,83.48
2023-05-18T01:33:02.809Z,83.03
2023-05-18T01:34:02.657Z,82.55
2023-05-18T01:35:02.651Z,82.24
2023-05-18T01:36:02.670Z,82.24
2023-05-18T01:37:02.646Z,82.14
2023-05-18T01:38:02.650Z,82.65
2023-05-18T01:39:02.691Z,83.89
2023-05-18T01:40:02.641Z,83.78
2023-05-18T01:41:02.627Z,83.68
2023-05-18T01:42:02.628Z,83.37
2023-05-18T01:43:02.662Z,83.89
2023-05-18T01:44:02.642Z,82.86
2023-05-18T01:45:02.607Z,82.76
2023-05-18T01:46:02.734Z,82.86
2023-05-18T01:47:02.635Z,82.96
2023-05-18T01:48:02.638Z,84.09
2023-05-18T01:49:02.598Z,84.30
2023-05-18T01:50:02.603Z,83.48
2023-05-18T01:51:02.588Z,84.40
2023-05-18T01:52:02.585Z,84.34
2023-05-18T01:53:02.577Z,84.40
2023-05-18T01:54:02.581Z,85.63
2023-05-18T01:55:02.573Z,85.33
2023-05-18T01:56:02.570Z,85.74
2023-05-18T01:57:02.576Z,85.84
2023-05-18T01:58:02.559Z,85.94
2023-05-18T01:59:02.572Z,85.33
2023-05-18T02:00:02.556Z,85.84
2023-05-18T02:01:02.552Z,86.05
2023-05-18T02:02:02.591Z,86.15
2023-05-18T02:03:02.679Z,85.94
2023-05-18T02:04:02.676Z,85.53
2023-05-18T02:05:02.550Z,85.22
2023-05-18T02:06:02.540Z,85.33
2023-05-18T02:07:02.528Z,85.84
2023-05-18T02:08:02.522Z,85.53
2023-05-18T02:09:02.522Z,85.12
2023-05-18T02:10:02.517Z,85.33
2023-05-18T02:11:02.507Z,85.63
2023-05-18T02:12:02.508Z,86.05
2023-05-18T02:13:02.501Z,83.99
2023-05-18T02:14:02.493Z,84.30
2023-05-18T02:15:02.692Z,85.63
2023-05-18T02:16:02.526Z,84.91
2023-05-18T02:17:02.494Z,85.63
2023-05-18T02:18:02.495Z,85.22
2023-05-18T02:19:02.545Z,86.05
2023-05-18T02:20:02.483Z,85.74
2023-05-18T02:21:02.476Z,85.94
2023-05-18T02:22:02.461Z,86.25
2023-05-18T02:23:02.467Z,85.63
2023-05-18T02:24:02.454Z,85.94
2023-05-18T02:25:02.455Z,85.94
2023-05-18T02:26:02.461Z,85.94
2023-05-18T02:27:02.443Z,85.43
2023-05-18T02:28:02.441Z,85.53
2023-05-18T02:29:02.438Z,85.22
2023-05-18T02:30:02.434Z,85.53
2023-05-18T02:31:02.430Z,84.50
2023-05-18T02:32:02.482Z,84.30
2023-05-18T02:33:02.454Z,85.22
2023-05-18T02:34:02.416Z,85.53
2023-05-18T02:35:02.446Z,85.84
2023-05-18T02:36:02.408Z,85.84
2023-05-18T02:37:02.406Z,85.84
2023-05-18T02:38:02.399Z,86.05
2023-05-18T02:39:02.401Z,86.05
2023-05-18T02:40:02.395Z,85.74
2023-05-18T02:41:02.382Z,86.15
2023-05-18T02:42:02.384Z,85.84
2023-05-18T02:43:02.376Z,86.05
2023-05-18T02:44:02.374Z,85.84
2023-05-18T02:45:02.367Z,85.02
2023-05-18T02:46:02.459Z,85.94
2023-05-18T02:47:02.370Z,85.74
2023-05-18T02:48:02.394Z,85.53
2023-05-18T02:49:02.354Z,85.63
2023-05-18T02:50:02.378Z,85.84
2023-05-18T02:51:02.369Z,86.25
2023-05-18T02:52:02.344Z,86.15
2023-05-18T02:53:02.340Z,86.46
2023-05-18T02:54:02.337Z,86.35
2023-05-18T02:55:02.332Z,86.25
2023-05-18T02:56:02.351Z,85.84
2023-05-18T02:57:02.330Z,85.02
2023-05-18T02:58:02.373Z,85.43
2023-05-18T02:59:02.333Z,85.84
2023-05-18T03:00:02.335Z,86.15
2023-05-18T03:01:02.349Z,85.74
2023-05-18T03:02:02.352Z,86.19
2023-05-18T03:03:02.404Z,86.08
2023-05-18T03:04:02.314Z,85.84
2023-05-18T03:05:02.291Z,86.08
2023-05-18T03:06:02.288Z,86.08
2023-05-18T03:07:02.308Z,86.08
2023-05-18T03:08:02.288Z,86.19
2023-05-18T03:09:02.282Z,86.29
2023-05-18T03:10:02.276Z,85.88
2023-05-18T03:11:02.276Z,86.40
2023-05-18T03:12:02.267Z,85.88
2023-05-18T03:13:02.263Z,86.80
2023-05-18T03:14:02.263Z,86.40
2023-05-18T03:15:02.505Z,86.25
2023-05-18T03:16:02.269Z,86.80
2023-05-18T03:17:02.380Z,86.70
2023-05-18T03:18:02.335Z,86.80
2023-05-18T03:19:02.379Z,86.70
2023-05-18T03:20:02.240Z,86.19
2023-05-18T03:21:02.386Z,86.29
2023-05-18T03:22:02.240Z,86.40
2023-05-18T03:23:02.254Z,86.08
2023-05-18T03:24:02.221Z,86.19
2023-05-18T03:25:02.214Z,86.64
2023-05-18T03:26:02.217Z,86.74
2023-05-18T03:27:02.209Z,86.64
2023-05-18T03:28:02.212Z,86.64
2023-05-18T03:29:02.240Z,86.33
2023-05-18T03:30:02.195Z,86.64
2023-05-18T03:31:02.214Z,86.54
2023-05-18T03:32:02.193Z,86.74
2023-05-18T03:33:02.236Z,87.15
2023-05-18T03:34:02.205Z,87.26
2023-05-18T03:35:02.184Z,87.26
2023-05-18T03:36:02.173Z,86.74
2023-05-18T03:37:02.181Z,86.74
2023-05-18T03:38:02.164Z,87.46
2023-05-18T03:39:02.393Z,86.43
2023-05-18T03:40:02.158Z,85.92
2023-05-18T03:41:02.161Z,86.85
2023-05-18T03:42:02.152Z,87.05
2023-05-18T03:43:02.165Z,86.64
2023-05-18T03:44:02.145Z,86.54
2023-05-18T03:45:02.135Z,87.26
2023-05-18T03:46:02.184Z,86.74
2023-05-18T03:47:02.132Z,87.30
2023-05-18T03:48:02.149Z,86.88
2023-05-18T03:49:02.131Z,86.95
2023-05-18T03:50:02.117Z,87.26
2023-05-18T03:51:02.116Z,87.40
2023-05-18T03:52:02.121Z,87.19
2023-05-18T03:53:02.121Z,87.60
2023-05-18T03:54:02.102Z,87.51
2023-05-18T03:55:02.124Z,87.09
2023-05-18T03:56:02.109Z,87.40
2023-05-18T03:57:02.091Z,87.60
2023-05-18T03:58:02.086Z,87.51
2023-05-18T03:59:02.099Z,88.53
2023-05-18T04:00:02.099Z,88.12
2023-05-18T04:01:02.077Z,87.92
2023-05-18T04:02:02.104Z,87.30
2023-05-18T04:03:02.133Z,87.26
2023-05-18T04:04:02.107Z,88.23
2023-05-18T04:05:02.065Z,87.87
2023-05-18T04:06:02.064Z,88.12
2023-05-18T04:07:02.059Z,88.23
2023-05-18T04:08:02.057Z,87.77
2023-05-18T04:09:02.053Z,88.08
2023-05-18T04:10:02.042Z,87.98
2023-05-18T04:11:02.062Z,87.81
2023-05-18T04:12:02.024Z,88.29
2023-05-18T04:13:02.024Z,87.46
2023-05-18T04:14:02.018Z,88.02
2023-05-18T04:15:02.013Z,87.51
2023-05-18T04:16:02.041Z,87.40
2023-05-18T04:17:02.007Z,87.60
2023-05-18T04:18:02.079Z,88.02
2023-05-18T04:19:02.051Z,88.18
2023-05-18T04:20:02.450Z,88.43
2023-05-18T04:21:01.992Z,88.64
2023-05-18T04:22:01.985Z,88.43
2023-05-18T04:23:01.996Z,88.02
2023-05-18T04:24:01.981Z,87.92
2023-05-18T04:25:01.976Z,88.12
2023-05-18T04:26:01.977Z,88.23
2023-05-18T04:27:01.999Z,88.53
2023-05-18T04:28:01.965Z,87.77
2023-05-18T04:29:01.958Z,88.43
2023-05-18T04:30:01.952Z,87.98
2023-05-18T04:31:01.950Z,88.64
2023-05-18T04:32:02.005Z,88.64
2023-05-18T04:33:02.007Z,87.98
2023-05-18T04:34:01.940Z,87.77
2023-05-18T04:35:01.939Z,87.51
2023-05-18T04:36:01.934Z,87.81
2023-05-18T04:37:01.936Z,88.43
2023-05-18T04:38:01.922Z,88.64
2023-05-18T04:39:01.929Z,88.74
2023-05-18T04:40:01.936Z,88.74
2023-05-18T04:41:01.915Z,88.23
2023-05-18T04:42:01.921Z,88.80
2023-05-18T04:43:02.002Z,88.95
2023-05-18T04:44:01.906Z,88.90
2023-05-18T04:45:01.896Z,88.90
2023-05-18T04:46:01.920Z,88.59
2023-05-18T04:47:01.894Z,88.90
2023-05-18T04:48:01.974Z,89.11
2023-05-18T04:49:01.882Z,88.90
2023-05-18T04:50:01.873Z,88.80
2023-05-18T04:51:01.870Z,89.01
2023-05-18T04:52:01.869Z,88.90
2023-05-18T04:53:01.864Z,88.80
2023-05-18T04:54:01.856Z,88.59
2023-05-18T04:55:01.862Z,88.49
2023-05-18T04:56:01.851Z,88.49
2023-05-18T04:57:01.847Z,88.70
2023-05-18T04:58:01.843Z,89.01
2023-05-18T04:59:01.863Z,88.70
2023-05-18T05:00:01.850Z,88.59
2023-05-18T05:01:01.845Z,88.39
2023-05-18T05:02:01.819Z,88.70
2023-05-18T05:03:01.875Z,88.59
2023-05-18T05:04:01.833Z,88.59
2023-05-18T05:05:01.832Z,88.29
2023-05-18T05:06:01.809Z,88.90
2023-05-18T05:07:01.802Z,88.90
2023-05-18T05:08:01.796Z,88.56
2023-05-18T05:09:01.795Z,88.24
2023-05-18T05:10:01.790Z,88.90
2023-05-18T05:11:01.790Z,88.86
2023-05-18T05:12:01.777Z,88.45
2023-05-18T05:13:01.775Z,88.04
2023-05-18T05:14:01.779Z,88.35
2023-05-18T05:15:01.788Z,88.35
2023-05-18T05:16:01.879Z,88.24
2023-05-18T05:17:01.761Z,88.56
2023-05-18T05:18:01.771Z,88.76
2023-05-18T05:19:01.847Z,88.35
2023-05-18T05:20:01.749Z,88.66
2023-05-18T05:21:01.743Z,88.10
2023-05-18T05:22:01.732Z,88.41
2023-05-18T05:23:01.837Z,87.84
2023-05-18T05:24:01.799Z,87.69
2023-05-18T05:25:02.899Z,88.14
2023-05-18T05:26:01.720Z,88.45
2023-05-18T05:27:01.724Z,88.04
2023-05-18T05:28:01.723Z,88.20
2023-05-18T05:29:01.717Z,88.51
2023-05-18T05:30:01.711Z,87.79
2023-05-18T05:31:01.770Z,88.10
2023-05-18T05:32:01.761Z,88.00
2023-05-18T05:33:01.739Z,87.79
2023-05-18T05:34:01.687Z,87.59
2023-05-18T05:35:01.692Z,88.31
2023-05-18T05:36:01.692Z,88.62
2023-05-18T05:37:01.683Z,88.72
2023-05-18T05:38:01.686Z,88.72
2023-05-18T05:39:01.672Z,88.72
2023-05-18T05:40:01.671Z,88.31
2023-05-18T05:41:01.681Z,88.37
2023-05-18T05:42:01.670Z,87.85
2023-05-18T05:43:01.655Z,88.27
2023-05-18T05:44:01.727Z,88.68
2023-05-18T05:45:01.696Z,88.47
2023-05-18T05:46:01.640Z,87.96
2023-05-18T05:47:01.754Z,88.27
2023-05-18T05:48:01.661Z,88.89
2023-05-18T05:49:01.642Z,87.75
2023-05-18T05:50:01.664Z,87.85
2023-05-18T05:51:01.628Z,88.53
2023-05-18T05:52:01.618Z,88.33
2023-05-18T05:53:01.668Z,88.74
2023-05-18T05:54:01.617Z,87.51
2023-05-18T05:55:01.607Z,87.82
2023-05-18T05:56:01.609Z,87.20
2023-05-18T05:57:01.597Z,87.10
2023-05-18T05:58:01.589Z,86.85
2023-05-18T05:59:01.592Z,86.13
2023-05-18T06:00:01.703Z,86.58
2023-05-18T06:01:01.589Z,86.44
2023-05-18T06:02:01.627Z,85.82
2023-05-18T06:03:01.657Z,85.35
2023-05-18T06:04:01.726Z,83.67
2023-05-18T06:05:01.582Z,83.98
2023-05-18T06:06:01.569Z,84.12
2023-05-18T06:07:01.562Z,84.80
2023-05-18T06:08:01.557Z,85.76
2023-05-18T06:09:01.550Z,85.86
2023-05-18T06:10:01.545Z,86.27
2023-05-18T06:11:01.540Z,84.28
2023-05-18T06:12:01.537Z,84.08
2023-05-18T06:13:01.540Z,85.72
2023-05-18T06:14:01.526Z,87.16
2023-05-18T06:15:01.534Z,88.08
2023-05-18T06:16:01.549Z,88.49
2023-05-18T06:17:01.539Z,88.66
2023-05-18T06:18:01.565Z,88.66
2023-05-18T06:19:01.591Z,88.66
2023-05-18T06:20:01.517Z,89.37
2023-05-18T06:21:01.520Z,89.07
2023-05-18T06:22:01.499Z,89.27
2023-05-18T06:23:01.498Z,88.51
2023-05-18T06:24:01.498Z,87.28
2023-05-18T06:25:01.493Z,87.08
2023-05-18T06:26:01.484Z,88.41
2023-05-18T06:27:01.484Z,88.92
2023-05-18T06:28:01.483Z,89.29
2023-05-18T06:29:01.477Z,89.09
2023-05-18T06:30:01.892Z,89.50
2023-05-18T06:31:01.470Z,88.78
2023-05-18T06:32:01.510Z,89.45
2023-05-18T06:33:01.521Z,88.94
2023-05-18T06:34:01.457Z,89.76
2023-05-18T06:35:01.472Z,90.07
2023-05-18T06:36:01.449Z,89.76
2023-05-18T06:37:01.447Z,88.84
2023-05-18T06:38:01.445Z,88.49
2023-05-18T06:39:01.440Z,87.67
2023-05-18T06:40:01.457Z,84.74
2023-05-18T06:41:01.437Z,85.66
2023-05-18T06:42:01.470Z,83.92
2023-05-18T06:43:01.428Z,86.24
2023-05-18T06:44:01.424Z,87.47
2023-05-18T06:45:01.422Z,88.29
2023-05-18T06:46:01.419Z,88.08
2023-05-18T06:47:01.414Z,87.98
2023-05-18T06:48:01.456Z,87.98
2023-05-18T06:49:01.421Z,87.57
2023-05-18T06:50:01.407Z,87.98
2023-05-18T06:51:01.420Z,88.08
2023-05-18T06:52:01.401Z,88.24
2023-05-18T06:53:01.395Z,87.73
2023-05-18T06:54:01.386Z,87.43
2023-05-18T06:55:01.407Z,88.45
2023-05-18T06:56:01.378Z,88.04
2023-05-18T06:57:01.376Z,86.71
2023-05-18T06:58:01.377Z,83.74
2023-05-18T06:59:01.373Z,83.74
2023-05-18T07:00:01.371Z,84.05
2023-05-18T07:01:01.421Z,83.84
2023-05-18T07:02:01.452Z,81.70
2023-05-18T07:03:01.481Z,82.31
2023-05-18T07:04:01.409Z,82.31
2023-05-18T07:05:01.347Z,79.44
2023-05-18T07:06:01.341Z,78.11
2023-05-18T07:07:01.374Z,78.42
2023-05-18T07:08:01.381Z,81.90
2023-05-18T07:09:01.341Z,84.66
2023-05-18T07:10:01.333Z,85.17
2023-05-18T07:11:01.334Z,83.60
2023-05-18T07:12:01.337Z,85.55
2023-05-18T07:13:01.324Z,85.55
2023-05-18T07:14:01.315Z,85.85
2023-05-18T07:15:01.319Z,86.05
2023-05-18T07:16:01.377Z,86.02
2023-05-18T07:17:01.314Z,86.73
2023-05-18T07:18:01.360Z,87.45
2023-05-18T07:19:01.406Z,85.50
2023-05-18T07:20:01.321Z,80.49
2023-05-18T07:21:01.295Z,78.96
2023-05-18T07:22:01.285Z,78.45
2023-05-18T07:23:01.331Z,78.86
2023-05-18T07:24:01.291Z,80.49
2023-05-18T07:25:01.284Z,80.90
2023-05-18T07:26:01.292Z,78.75
2023-05-18T07:27:01.294Z,78.86
2023-05-18T07:28:01.268Z,78.55
2023-05-18T07:29:01.268Z,80.39
2023-05-18T07:30:01.634Z,80.29
2023-05-18T07:31:01.314Z,77.94
2023-05-18T07:32:01.326Z,78.14
2023-05-18T07:33:01.310Z,77.53
2023-05-18T07:34:01.253Z,77.73
2023-05-18T07:35:01.262Z,78.96
2023-05-18T07:36:01.239Z,79.27
2023-05-18T07:37:01.241Z,81.10
2023-05-18T07:38:01.245Z,80.69
2023-05-18T07:39:01.258Z,79.78
2023-05-18T07:40:01.236Z,78.82
2023-05-18T07:41:01.231Z,78.04
2023-05-18T07:42:01.222Z,77.01
2023-05-18T07:43:01.245Z,77.90
2023-05-18T07:44:01.215Z,77.90
2023-05-18T07:45:01.211Z,81.48
2023-05-18T07:46:01.208Z,84.24
2023-05-18T07:47:01.592Z,82.70
2023-05-18T07:48:01.290Z,83.89
2023-05-18T07:49:01.209Z,84.00
2023-05-18T07:50:01.226Z,84.30
2023-05-18T07:51:01.194Z,83.75
2023-05-18T07:52:01.193Z,82.32
2023-05-18T07:53:01.191Z,82.32
2023-05-18T07:54:01.196Z,80.69
2023-05-18T07:55:01.295Z,80.38
2023-05-18T07:56:01.203Z,80.96
2023-05-18T07:57:01.172Z,80.85
2023-05-18T07:58:01.187Z,80.65
2023-05-18T07:59:01.169Z,81.23
2023-05-18T08:00:01.172Z,80.71
2023-05-18T08:01:01.161Z,80.71
2023-05-18T08:02:01.186Z,80.41
2023-05-18T08:03:01.349Z,80.16
2023-05-18T08:04:01.207Z,77.31
2023-05-18T08:05:01.150Z,74.55
2023-05-18T08:06:01.156Z,76.90
2023-05-18T08:07:01.216Z,76.09
2023-05-18T08:08:01.138Z,80.47
2023-05-18T08:09:01.137Z,77.82
2023-05-18T08:10:01.135Z,73.64
2023-05-18T08:11:01.158Z,72.24
2023-05-18T08:12:01.129Z,71.53
2023-05-18T08:13:01.138Z,71.22
2023-05-18T08:14:01.128Z,73.10
2023-05-18T08:15:01.340Z,73.10
2023-05-18T08:16:11.286Z,71.26
2023-05-18T08:17:01.151Z,76.67
2023-05-18T08:18:01.112Z,77.08
2023-05-18T08:19:01.194Z,73.60
2023-05-18T08:20:01.128Z,71.87
2023-05-18T08:21:01.112Z,72.79
2023-05-18T08:22:01.096Z,72.28
2023-05-18T08:23:01.102Z,74.01
2023-05-18T08:24:01.094Z,72.28
2023-05-18T08:25:01.096Z,71.87
2023-05-18T08:26:01.093Z,71.56
2023-05-18T08:27:01.129Z,71.05
2023-05-18T08:28:01.103Z,71.46
2023-05-18T08:29:01.097Z,73.81
2023-05-18T08:30:01.079Z,73.71
2023-05-18T08:31:01.131Z,72.99
2023-05-18T08:32:01.115Z,77.08
2023-05-18T08:33:01.104Z,72.45
2023-05-18T08:34:01.072Z,71.22
2023-05-18T08:35:01.065Z,70.51
2023-05-18T08:36:01.064Z,69.79
2023-05-18T08:37:01.055Z,72.86
2023-05-18T08:38:01.351Z,73.16
2023-05-18T08:39:01.047Z,71.53
2023-05-18T08:40:01.046Z,72.52
2023-05-18T08:41:01.067Z,70.57
2023-05-18T08:42:01.059Z,70.48
2023-05-18T08:43:01.074Z,68.54
2023-05-18T08:44:01.040Z,69.79
2023-05-18T08:45:01.034Z,69.49
2023-05-18T08:46:01.035Z,71.84
2023-05-18T08:47:01.027Z,72.34
2023-05-18T08:48:01.113Z,72.24
2023-05-18T08:49:01.026Z,69.69
2023-05-18T08:50:01.023Z,71.60
2023-05-18T08:51:01.029Z,70.92
2023-05-18T08:52:01.029Z,70.48
2023-05-18T08:53:01.011Z,69.56
2023-05-18T08:54:01.014Z,69.25
2023-05-18T08:55:01.011Z,69.56
2023-05-18T08:56:01.002Z,69.66
2023-05-18T08:57:00.997Z,69.93
2023-05-18T08:58:00.997Z,68.81
2023-05-18T08:59:01.006Z,69.53
2023-05-18T09:00:00.991Z,66.06
2023-05-18T09:01:00.978Z,67.18
2023-05-18T09:02:01.175Z,68.57
2023-05-18T09:03:00.998Z,70.34
2023-05-18T09:04:00.994Z,69.53
2023-05-18T09:05:00.989Z,68.51
2023-05-18T09:06:00.975Z,68.40
2023-05-18T09:07:00.966Z,68.48
2023-05-18T09:08:00.965Z,66.27
2023-05-18T09:09:00.953Z,68.61
2023-05-18T09:10:00.978Z,68.20
2023-05-18T09:11:00.960Z,72.38
2023-05-18T09:12:00.945Z,71.56
2023-05-18T09:13:00.946Z,70.75
2023-05-18T09:14:00.943Z,69.73
2023-05-18T09:15:00.969Z,67.11
2023-05-18T09:16:01.001Z,68.03
2023-05-18T09:17:00.924Z,67.41
2023-05-18T09:18:00.981Z,70.48
2023-05-18T09:19:01.004Z,70.68
2023-05-18T09:20:01.478Z,72.52
2023-05-18T09:21:00.914Z,69.05
2023-05-18T09:22:00.931Z,67.72
2023-05-18T09:23:00.919Z,70.37
2023-05-18T09:24:00.910Z,69.46
2023-05-18T09:25:00.906Z,70.81
2023-05-18T09:26:00.906Z,73.57
2023-05-18T09:27:00.903Z,67.72
2023-05-18T09:28:00.899Z,69.69
2023-05-18T09:29:00.891Z,75.16
2023-05-18T09:30:00.893Z,77.72
2023-05-18T09:31:00.923Z,78.53
2023-05-18T09:32:00.937Z,72.52
2023-05-18T09:33:00.989Z,69.66
2023-05-18T09:34:01.014Z,72.00
2023-05-18T09:35:00.880Z,71.50
2023-05-18T09:36:00.870Z,72.62
2023-05-18T09:37:00.869Z,72.21
2023-05-18T09:38:00.872Z,71.91
2023-05-18T09:39:00.866Z,69.05
2023-05-18T09:40:00.896Z,69.76
2023-05-18T09:41:00.863Z,72.72
2023-05-18T09:42:00.861Z,69.35
2023-05-18T09:43:00.851Z,70.57
2023-05-18T09:44:00.848Z,69.15
2023-05-18T09:45:00.839Z,71.91
2023-05-18T09:46:00.839Z,71.80
2023-05-18T09:47:00.928Z,72.11
2023-05-18T09:48:00.856Z,76.80
2023-05-18T09:49:00.832Z,78.39
2023-05-18T09:50:00.827Z,70.17
2023-05-18T09:51:00.821Z,70.85
2023-05-18T09:52:00.839Z,70.95
2023-05-18T09:53:00.814Z,68.61
2023-05-18T09:54:00.823Z,70.04
2023-05-18T09:55:00.819Z,70.75
2023-05-18T09:56:00.817Z,71.97
2023-05-18T09:57:09.551Z,69.22
2023-05-18T09:58:00.804Z,70.72
2023-05-18T09:59:00.828Z,68.78
2023-05-18T10:00:00.807Z,71.06
2023-05-18T10:01:00.817Z,75.40
2023-05-18T10:02:00.800Z,74.69
2023-05-18T10:03:00.823Z,73.26
2023-05-18T10:04:00.802Z,72.65
2023-05-18T10:05:00.785Z,72.86
2023-05-18T10:06:00.779Z,71.12
2023-05-18T10:07:00.777Z,72.75
2023-05-18T10:08:00.777Z,70.82
2023-05-18T10:09:00.768Z,69.70
2023-05-18T10:10:00.769Z,70.31
2023-05-18T10:11:00.809Z,73.47
2023-05-18T10:12:00.765Z,73.16
2023-05-18T10:13:00.757Z,70.95
2023-05-18T10:14:00.756Z,70.61
2023-05-18T10:15:00.752Z,70.82
2023-05-18T10:16:00.766Z,71.56
2023-05-18T10:17:14.322Z,71.06
2023-05-18T10:18:00.750Z,71.94
2023-05-18T10:19:00.808Z,75.10
2023-05-18T10:20:00.738Z,75.74
2023-05-18T10:21:00.798Z,72.08
2023-05-18T10:22:00.735Z,70.72
2023-05-18T10:23:00.733Z,70.10
2023-05-18T10:24:00.739Z,71.19
2023-05-18T10:25:01.024Z,70.51
2023-05-18T10:26:00.724Z,69.36
2023-05-18T10:27:00.720Z,69.80
2023-05-18T10:28:00.719Z,72.04
2023-05-18T10:29:00.720Z,73.47
2023-05-18T10:30:00.715Z,75.51
2023-05-18T10:31:00.840Z,77.64
2023-05-18T10:32:02.606Z,77.61
2023-05-18T10:33:00.718Z,79.34
2023-05-18T10:34:00.699Z,77.00
2023-05-18T10:35:00.756Z,79.85
2023-05-18T10:36:00.695Z,78.83
2023-05-18T10:37:00.689Z,73.71
2023-05-18T10:38:00.698Z,73.13
2023-05-18T10:39:00.705Z,70.65
2023-05-18T10:40:00.685Z,70.45
2023-05-18T10:41:00.693Z,72.28
2023-05-18T10:42:00.684Z,71.47
2023-05-18T10:43:00.672Z,72.11
2023-05-18T10:44:00.671Z,70.28
2023-05-18T10:45:00.668Z,70.04
2023-05-18T10:46:00.731Z,70.14
2023-05-18T10:47:00.730Z,71.91
2023-05-18T10:48:00.719Z,70.04
2023-05-18T10:49:00.663Z,73.10
2023-05-18T10:50:00.677Z,69.23
2023-05-18T10:51:00.675Z,66.47
2023-05-18T10:52:00.651Z,67.69
2023-05-18T10:53:00.654Z,69.43
2023-05-18T10:54:00.645Z,70.04
2023-05-18T10:55:00.643Z,70.34
2023-05-18T10:56:00.642Z,68.31
2023-05-18T10:57:00.650Z,68.85
2023-05-18T10:58:00.635Z,71.36
2023-05-18T10:59:00.632Z,69.53
2023-05-18T11:00:00.647Z,69.12
2023-05-18T11:01:00.626Z,67.49
2023-05-18T11:02:00.694Z,69.23
2023-05-18T11:03:00.669Z,70.34
2023-05-18T11:04:00.616Z,70.65
2023-05-18T11:05:00.698Z,72.45
2023-05-18T11:06:00.608Z,73.40
2023-05-18T11:07:00.680Z,74.21
2023-05-18T11:08:00.608Z,69.32
2023-05-18T11:09:00.611Z,70.31
2023-05-18T11:10:00.612Z,73.16
2023-05-18T11:11:00.619Z,69.60
2023-05-18T11:12:00.591Z,70.10
2023-05-18T11:13:00.589Z,69.60
2023-05-18T11:14:00.609Z,72.55
2023-05-18T11:15:00.586Z,72.55
2023-05-18T11:16:00.683Z,73.67
2023-05-18T11:17:00.573Z,74.69
2023-05-18T11:18:00.607Z,75.30
2023-05-18T11:19:00.577Z,71.64
2023-05-18T11:20:00.568Z,72.14
2023-05-18T11:21:00.562Z,71.26
2023-05-18T11:22:00.563Z,72.55
2023-05-18T11:23:00.587Z,70.41
2023-05-18T11:24:00.556Z,72.31
2023-05-18T11:25:00.699Z,71.70
2023-05-18T11:26:00.548Z,70.68
2023-05-18T11:27:00.555Z,72.92
2023-05-18T11:28:00.552Z,70.07
2023-05-18T11:29:00.550Z,67.83
2023-05-18T11:30:14.644Z,68.85
2023-05-18T11:31:00.541Z,69.87
2023-05-18T11:32:01.278Z,71.09
2023-05-18T11:33:00.654Z,69.46
2023-05-18T11:34:00.535Z,68.04
2023-05-18T11:35:00.532Z,67.94
2023-05-18T11:36:00.526Z,71.50
2023-05-18T11:37:00.547Z,68.75
2023-05-18T11:38:00.521Z,67.13
2023-05-18T11:39:00.540Z,70.07
2023-05-18T11:40:02.786Z,66.41
2023-05-18T11:41:00.507Z,70.14
2023-05-18T11:42:00.506Z,69.23
2023-05-18T11:43:00.505Z,70.75
2023-05-18T11:44:00.509Z,67.50
2023-05-18T11:45:00.501Z,70.04
2023-05-18T11:46:00.496Z,71.97
2023-05-18T11:47:00.494Z,72.48
2023-05-18T11:48:00.562Z,70.04
2023-05-18T11:49:00.512Z,71.57
2023-05-18T11:50:00.527Z,71.40
2023-05-18T11:51:00.503Z,73.09
2023-05-18T11:52:00.482Z,71.97
2023-05-18T11:53:00.480Z,69.53
2023-05-18T11:54:00.472Z,70.86
2023-05-18T11:55:00.494Z,71.36
2023-05-18T11:56:00.469Z,73.39
2023-05-18T11:57:00.470Z,72.38
2023-05-18T11:58:00.469Z,72.99
2023-05-18T11:59:00.460Z,71.26
2023-05-18T12:00:00.467Z,69.43
2023-05-18T12:01:00.461Z,67.91
2023-05-18T12:02:00.486Z,68.32
2023-05-18T12:03:00.518Z,66.28
2023-05-18T12:04:00.482Z,68.41
2023-05-18T12:05:00.454Z,70.65
2023-05-18T12:06:00.450Z,68.41
2023-05-18T12:07:00.444Z,70.25
2023-05-18T12:08:00.449Z,69.64
2023-05-18T12:09:01.023Z,68.59
2023-05-18T12:10:00.437Z,68.08
2023-05-18T12:11:00.456Z,69.50
2023-05-18T12:12:00.426Z,67.47
2023-05-18T12:13:00.421Z,67.67
2023-05-18T12:14:00.418Z,68.28
2023-05-18T12:15:00.417Z,69.40
2023-05-18T12:16:00.420Z,68.69
2023-05-18T12:17:00.436Z,68.72
2023-05-18T12:18:00.441Z,68.21
2023-05-18T12:19:00.446Z,68.32
2023-05-18T12:20:00.415Z,70.65
2023-05-18T12:21:00.407Z,66.15
2023-05-18T12:22:00.414Z,70.86
2023-05-18T12:23:00.398Z,71.03
2023-05-18T12:24:00.399Z,68.08
2023-05-18T12:25:00.600Z,66.76
2023-05-18T12:26:00.410Z,66.46
2023-05-18T12:27:00.527Z,66.15
2023-05-18T12:28:00.403Z,69.50
2023-05-18T12:29:00.385Z,70.31
2023-05-18T12:30:00.380Z,69.20
2023-05-18T12:31:00.484Z,71.43
2023-05-18T12:32:00.375Z,68.49
2023-05-18T12:33:00.401Z,72.55
2023-05-18T12:34:00.371Z,73.60
2023-05-18T12:35:00.369Z,72.34
2023-05-18T12:36:00.372Z,70.55
2023-05-18T12:37:00.364Z,70.25
2023-05-18T12:38:00.504Z,69.02
2023-05-18T12:39:00.362Z,72.89
2023-05-18T12:40:00.356Z,72.48
2023-05-18T12:41:00.365Z,72.69
2023-05-18T12:42:00.356Z,73.09
2023-05-18T12:43:00.369Z,73.60
2023-05-18T12:44:00.343Z,73.50
2023-05-18T12:45:00.349Z,73.39
2023-05-18T12:46:00.381Z,75.26
2023-05-18T12:47:00.360Z,71.80
2023-05-18T12:48:00.394Z,70.14
2023-05-18T12:49:00.335Z,69.13
2023-05-18T12:50:00.332Z,68.82
2023-05-18T12:51:00.340Z,66.55
2023-05-18T12:52:00.329Z,70.99